sensor_id;sensor_type;location;lat;lon;timestamp;P1;durP1;ratioP1;P2;durP2;ratioP2
14663;SDS011;7419;52.184;5.944;2023-07-20T00:04:34;2.84;;;1.11;;
14663;SDS011;7419;52.184;5.944;2023-07-20T00:04:34;1.01;;;0.80;;
14663;SDS011;7419;52.184;5.944;2023-07-20T00:04:34;1.11;;;0.71;;
14663;SDS011;7419;52.184;5.944;2023-07-20T00:04:34;1.27;;;1.01;;
14663;SDS011;7419;52.184;5.944;2023-07-20T00:04:34;1.02;;;0.74;;
14663;SDS011;7419;52.184;5.944;2023-07-20T00:05:12;0.67;;;0.67;;
14663;SDS011;7419;52.184;5.944;2023-07-20T00:06:12;2.02;;;0.67;;
14663;SDS011;7419;52.184;5.944;2023-07-20T00:07:12;0.94;;;0.65;;
14663;SDS011;7419;52.184;5.944;2023-07-20T00:08:12;1.42;;;0.69;;
14663;SDS011;7419;52.184;5.944;2023-07-20T00:09:12;0.57;;;0.44;;
14663;SDS011;7419;52.184;5.944;2023-07-20T00:10:12;0.75;;;0.70;;
14663;SDS011;7419;52.184;5.944;2023-07-20T00:11:12;0.80;;;0.76;;
14663;SDS011;7419;52.184;5.944;2023-07-20T00:12:12;0.78;;;0.72;;
14663;SDS011;7419;52.184;5.944;2023-07-20T00:13:12;1.64;;;0.56;;
14663;SDS011;7419;52.184;5.944;2023-07-20T00:14:12;0.64;;;0.64;;
14663;SDS011;7419;52.184;5.944;2023-07-20T00:15:12;1.90;;;0.78;;
14663;SDS011;7419;52.184;5.944;2023-07-20T00:16:12;0.55;;;0.41;;
14663;SDS011;7419;52.184;5.944;2023-07-20T00:17:12;1.94;;;0.57;;
14663;SDS011;7419;52.184;5.944;2023-07-20T00:18:13;2.14;;;0.52;;
14663;SDS011;7419;52.184;5.944;2023-07-20T00:19:13;1.49;;;0.76;;
14663;SDS011;7419;52.184;5.944;2023-07-20T00:20:13;1.61;;;0.55;;
14663;SDS011;7419;52.184;5.944;2023-07-20T00:21:13;0.44;;;0.44;;
14663;SDS011;7419;52.184;5.944;2023-07-20T00:22:13;0.59;;;0.59;;
14663;SDS011;7419;52.184;5.944;2023-07-20T00:23:13;0.89;;;0.47;;
14663;SDS011;7419;52.184;5.944;2023-07-20T00:24:13;0.93;;;0.63;;
14663;SDS011;7419;52.184;5.944;2023-07-20T00:25:13;2.25;;;0.52;;
14663;SDS011;7419;52.184;5.944;2023-07-20T00:26:13;1.13;;;0.70;;
14663;SDS011;7419;52.184;5.944;2023-07-20T00:27:13;1.28;;;0.53;;
14663;SDS011;7419;52.184;5.944;2023-07-20T00:28:13;0.48;;;0.43;;
14663;SDS011;7419;52.184;5.944;2023-07-20T00:29:13;0.92;;;0.53;;
14663;SDS011;7419;52.184;5.944;2023-07-20T00:30:13;0.78;;;0.38;;
14663;SDS011;7419;52.184;5.944;2023-07-20T00:31:13;0.59;;;0.49;;
14663;SDS011;7419;52.184;5.944;2023-07-20T00:32:13;2.40;;;0.63;;
14663;SDS011;7419;52.184;5.944;2023-07-20T00:33:16;0.50;;;0.45;;
14663;SDS011;7419;52.184;5.944;2023-07-20T00:34:14;0.54;;;0.30;;
14663;SDS011;7419;52.184;5.944;2023-07-20T00:35:14;0.46;;;0.40;;
14663;SDS011;7419;52.184;5.944;2023-07-20T00:36:14;0.44;;;0.37;;
14663;SDS011;7419;52.184;5.944;2023-07-20T00:37:14;0.58;;;0.44;;
14663;SDS011;7419;52.184;5.944;2023-07-20T00:38:14;0.65;;;0.22;;
14663;SDS011;7419;52.184;5.944;2023-07-20T00:39:14;0.52;;;0.40;;
14663;SDS011;7419;52.184;5.944;2023-07-20T00:40:14;0.32;;;0.31;;
14663;SDS011;7419;52.184;5.944;2023-07-20T00:41:14;0.53;;;0.46;;
14663;SDS011;7419;52.184;5.944;2023-07-20T00:42:14;1.35;;;0.54;;
14663;SDS011;7419;52.184;5.944;2023-07-20T00:43:14;0.60;;;0.59;;
14663;SDS011;7419;52.184;5.944;2023-07-20T00:44:14;0.76;;;0.43;;
14663;SDS011;7419;52.184;5.944;2023-07-20T00:45:14;0.44;;;0.33;;
14663;SDS011;7419;52.184;5.944;2023-07-20T00:46:14;0.51;;;0.36;;
14663;SDS011;7419;52.184;5.944;2023-07-20T00:47:14;0.29;;;0.29;;
14663;SDS011;7419;52.184;5.944;2023-07-20T00:48:14;0.58;;;0.53;;
14663;SDS011;7419;52.184;5.944;2023-07-20T00:49:15;0.48;;;0.48;;
14663;SDS011;7419;52.184;5.944;2023-07-20T00:50:15;1.65;;;0.64;;
14663;SDS011;7419;52.184;5.944;2023-07-20T00:51:15;0.48;;;0.48;;
14663;SDS011;7419;52.184;5.944;2023-07-20T00:52:15;0.33;;;0.33;;
14663;SDS011;7419;52.184;5.944;2023-07-20T00:53:15;2.14;;;0.38;;
14663;SDS011;7419;52.184;5.944;2023-07-20T00:54:15;0.27;;;0.26;;
14663;SDS011;7419;52.184;5.944;2023-07-20T00:55:15;0.38;;;0.37;;
14663;SDS011;7419;52.184;5.944;2023-07-20T00:56:15;0.41;;;0.35;;
14663;SDS011;7419;52.184;5.944;2023-07-20T00:57:15;0.34;;;0.23;;
14663;SDS011;7419;52.184;5.944;2023-07-20T00:58:15;1.48;;;0.37;;
14663;SDS011;7419;52.184;5.944;2023-07-20T00:59:15;0.41;;;0.41;;
14663;SDS011;7419;52.184;5.944;2023-07-20T01:00:15;1.16;;;0.64;;
14663;SDS011;7419;52.184;5.944;2023-07-20T01:01:15;0.57;;;0.32;;
14663;SDS011;7419;52.184;5.944;2023-07-20T01:02:15;0.37;;;0.37;;
14663;SDS011;7419;52.184;5.944;2023-07-20T01:03:16;0.68;;;0.37;;
14663;SDS011;7419;52.184;5.944;2023-07-20T01:04:16;0.38;;;0.25;;
14663;SDS011;7419;52.184;5.944;2023-07-20T01:05:16;0.57;;;0.36;;
14663;SDS011;7419;52.184;5.944;2023-07-20T01:06:19;0.44;;;0.44;;
14663;SDS011;7419;52.184;5.944;2023-07-20T01:07:17;0.18;;;0.14;;
14663;SDS011;7419;52.184;5.944;2023-07-20T01:08:17;0.35;;;0.30;;
14663;SDS011;7419;52.184;5.944;2023-07-20T01:09:17;0.33;;;0.29;;
14663;SDS011;7419;52.184;5.944;2023-07-20T01:10:18;0.86;;;0.31;;
14663;SDS011;7419;52.184;5.944;2023-07-20T01:11:17;0.50;;;0.35;;
14663;SDS011;7419;52.184;5.944;2023-07-20T01:12:18;0.66;;;0.42;;
14663;SDS011;7419;52.184;5.944;2023-07-20T01:13:16;0.44;;;0.38;;
14663;SDS011;7419;52.184;5.944;2023-07-20T01:14:16;0.58;;;0.50;;
14663;SDS011;7419;52.184;5.944;2023-07-20T01:15:16;0.48;;;0.36;;
14663;SDS011;7419;52.184;5.944;2023-07-20T01:16:16;1.09;;;0.25;;
14663;SDS011;7419;52.184;5.944;2023-07-20T01:17:16;0.24;;;0.24;;
14663;SDS011;7419;52.184;5.944;2023-07-20T01:18:17;1.98;;;0.24;;
14663;SDS011;7419;52.184;5.944;2023-07-20T01:19:17;0.34;;;0.34;;
14663;SDS011;7419;52.184;5.944;2023-07-20T01:20:18;1.57;;;0.30;;
14663;SDS011;7419;52.184;5.944;2023-07-20T01:21:18;0.22;;;0.22;;
14663;SDS011;7419;52.184;5.944;2023-07-20T01:22:21;0.49;;;0.38;;
14663;SDS011;7419;52.184;5.944;2023-07-20T01:23:22;0.79;;;0.36;;
14663;SDS011;7419;52.184;5.944;2023-07-20T01:24:20;0.46;;;0.31;;
14663;SDS011;7419;52.184;5.944;2023-07-20T01:25:21;0.31;;;0.31;;
14663;SDS011;7419;52.184;5.944;2023-07-20T01:26:22;0.69;;;0.29;;
14663;SDS011;7419;52.184;5.944;2023-07-20T01:27:23;0.51;;;0.33;;
14663;SDS011;7419;52.184;5.944;2023-07-20T01:28:23;0.35;;;0.35;;
14663;SDS011;7419;52.184;5.944;2023-07-20T01:29:21;0.35;;;0.35;;
14663;SDS011;7419;52.184;5.944;2023-07-20T01:30:27;0.69;;;0.27;;
14663;SDS011;7419;52.184;5.944;2023-07-20T01:31:19;0.17;;;0.17;;
14663;SDS011;7419;52.184;5.944;2023-07-20T01:32:17;0.53;;;0.30;;
14663;SDS011;7419;52.184;5.944;2023-07-20T01:33:18;0.69;;;0.49;;
14663;SDS011;7419;52.184;5.944;2023-07-20T01:34:17;0.87;;;0.20;;
14663;SDS011;7419;52.184;5.944;2023-07-20T01:35:17;0.47;;;0.21;;
14663;SDS011;7419;52.184;5.944;2023-07-20T01:36:18;0.31;;;0.31;;
14663;SDS011;7419;52.184;5.944;2023-07-20T01:37:18;0.34;;;0.20;;
14663;SDS011;7419;52.184;5.944;2023-07-20T01:38:18;0.18;;;0.15;;
14663;SDS011;7419;52.184;5.944;2023-07-20T01:39:18;0.82;;;0.24;;
14663;SDS011;7419;52.184;5.944;2023-07-20T01:40:19;0.39;;;0.11;;
14663;SDS011;7419;52.184;5.944;2023-07-20T01:41:18;0.10;;;0.10;;
14663;SDS011;7419;52.184;5.944;2023-07-20T01:42:18;0.18;;;0.18;;
14663;SDS011;7419;52.184;5.944;2023-07-20T01:43:18;0.10;;;0.10;;
14663;SDS011;7419;52.184;5.944;2023-07-20T01:44:18;0.16;;;0.16;;
14663;SDS011;7419;52.184;5.944;2023-07-20T01:45:18;0.20;;;0.13;;
14663;SDS011;7419;52.184;5.944;2023-07-20T01:46:18;0.15;;;0.15;;
14663;SDS011;7419;52.184;5.944;2023-07-20T01:47:18;0.42;;;0.21;;
14663;SDS011;7419;52.184;5.944;2023-07-20T01:48:18;0.14;;;0.13;;
14663;SDS011;7419;52.184;5.944;2023-07-20T01:49:18;0.45;;;0.19;;
14663;SDS011;7419;52.184;5.944;2023-07-20T01:50:18;0.28;;;0.13;;
14663;SDS011;7419;52.184;5.944;2023-07-20T01:51:19;0.10;;;0.10;;
14663;SDS011;7419;52.184;5.944;2023-07-20T01:52:18;0.20;;;0.10;;
14663;SDS011;7419;52.184;5.944;2023-07-20T01:53:20;0.39;;;0.27;;
14663;SDS011;7419;52.184;5.944;2023-07-20T01:54:18;0.03;;;0.02;;
14663;SDS011;7419;52.184;5.944;2023-07-20T01:55:19;0.57;;;0.30;;
14663;SDS011;7419;52.184;5.944;2023-07-20T01:56:19;0.13;;;0.13;;
14663;SDS011;7419;52.184;5.944;2023-07-20T01:57:19;0.10;;;0.10;;
14663;SDS011;7419;52.184;5.944;2023-07-20T01:58:19;0.46;;;0.11;;
14663;SDS011;7419;52.184;5.944;2023-07-20T01:59:19;1.50;;;0.13;;
14663;SDS011;7419;52.184;5.944;2023-07-20T02:00:19;0.93;;;0.10;;
14663;SDS011;7419;52.184;5.944;2023-07-20T02:01:19;0.02;;;0.02;;
14663;SDS011;7419;52.184;5.944;2023-07-20T02:02:19;0.13;;;0.13;;
14663;SDS011;7419;52.184;5.944;2023-07-20T02:03:19;0.74;;;0.17;;
14663;SDS011;7419;52.184;5.944;2023-07-20T02:04:19;0.37;;;0.37;;
14663;SDS011;7419;52.184;5.944;2023-07-20T02:05:19;0.15;;;0.14;;
14663;SDS011;7419;52.184;5.944;2023-07-20T02:06:19;0.40;;;0.32;;
14663;SDS011;7419;52.184;5.944;2023-07-20T02:07:19;0.30;;;0.10;;
14663;SDS011;7419;52.184;5.944;2023-07-20T02:08:19;0.09;;;0.05;;
14663;SDS011;7419;52.184;5.944;2023-07-20T02:09:20;0.10;;;0.10;;
14663;SDS011;7419;52.184;5.944;2023-07-20T02:10:20;0.19;;;0.19;;
14663;SDS011;7419;52.184;5.944;2023-07-20T02:11:20;0.10;;;0.05;;
14663;SDS011;7419;52.184;5.944;2023-07-20T02:12:20;0.59;;;0.10;;
14663;SDS011;7419;52.184;5.944;2023-07-20T02:13:20;0.11;;;0.11;;
14663;SDS011;7419;52.184;5.944;2023-07-20T02:14:20;0.47;;;0.09;;
14663;SDS011;7419;52.184;5.944;2023-07-20T02:15:20;0.10;;;0.10;;
14663;SDS011;7419;52.184;5.944;2023-07-20T02:16:20;0.16;;;0.16;;
14663;SDS011;7419;52.184;5.944;2023-07-20T02:17:20;0.10;;;0.10;;
14663;SDS011;7419;52.184;5.944;2023-07-20T02:18:20;0.09;;;0.09;;
14663;SDS011;7419;52.184;5.944;2023-07-20T02:19:20;0.59;;;0.24;;
14663;SDS011;7419;52.184;5.944;2023-07-20T02:20:20;0.31;;;0.10;;
14663;SDS011;7419;52.184;5.944;2023-07-20T02:21:20;0.41;;;0.31;;
14663;SDS011;7419;52.184;5.944;2023-07-20T02:22:20;0.19;;;0.14;;
14663;SDS011;7419;52.184;5.944;2023-07-20T02:23:21;0.13;;;0.13;;
14663;SDS011;7419;52.184;5.944;2023-07-20T02:24:20;0.23;;;0.13;;
14663;SDS011;7419;52.184;5.944;2023-07-20T02:25:20;0.25;;;0.08;;
14663;SDS011;7419;52.184;5.944;2023-07-20T02:26:20;0.59;;;0.29;;
14663;SDS011;7419;52.184;5.944;2023-07-20T02:27:20;2.15;;;0.24;;
14663;SDS011;7419;52.184;5.944;2023-07-20T02:28:21;0.15;;;0.10;;
14663;SDS011;7419;52.184;5.944;2023-07-20T02:29:21;0.20;;;0.10;;
14663;SDS011;7419;52.184;5.944;2023-07-20T02:30:21;0.18;;;0.10;;
14663;SDS011;7419;52.184;5.944;2023-07-20T02:31:21;0.20;;;0.20;;
14663;SDS011;7419;52.184;5.944;2023-07-20T02:32:21;0.08;;;0.08;;
14663;SDS011;7419;52.184;5.944;2023-07-20T02:33:21;2.25;;;0.20;;
14663;SDS011;7419;52.184;5.944;2023-07-20T02:34:21;0.16;;;0.16;;
14663;SDS011;7419;52.184;5.944;2023-07-20T02:35:21;0.31;;;0.09;;
14663;SDS011;7419;52.184;5.944;2023-07-20T02:36:21;0.47;;;0.13;;
14663;SDS011;7419;52.184;5.944;2023-07-20T02:37:21;0.23;;;0.18;;
14663;SDS011;7419;52.184;5.944;2023-07-20T02:38:21;0.26;;;0.12;;
14663;SDS011;7419;52.184;5.944;2023-07-20T02:39:21;0.10;;;0.10;;
14663;SDS011;7419;52.184;5.944;2023-07-20T02:40:21;0.18;;;0.10;;
14663;SDS011;7419;52.184;5.944;2023-07-20T02:41:21;0.03;;;0.01;;
14663;SDS011;7419;52.184;5.944;2023-07-20T02:42:21;0.10;;;0.10;;
14663;SDS011;7419;52.184;5.944;2023-07-20T02:43:21;0.13;;;0.06;;
14663;SDS011;7419;52.184;5.944;2023-07-20T02:44:22;0.07;;;0.07;;
14663;SDS011;7419;52.184;5.944;2023-07-20T02:45:22;0.06;;;0.06;;
14663;SDS011;7419;52.184;5.944;2023-07-20T02:46:22;0.29;;;0.10;;
14663;SDS011;7419;52.184;5.944;2023-07-20T02:47:22;0.14;;;0.14;;
14663;SDS011;7419;52.184;5.944;2023-07-20T02:48:22;0.05;;;0.05;;
14663;SDS011;7419;52.184;5.944;2023-07-20T02:49:22;0.20;;;0.05;;
14663;SDS011;7419;52.184;5.944;2023-07-20T02:50:22;-0.00;;;-0.00;;
14663;SDS011;7419;52.184;5.944;2023-07-20T02:51:22;0.40;;;0.16;;
14663;SDS011;7419;52.184;5.944;2023-07-20T02:52:23;0.20;;;0.10;;
14663;SDS011;7419;52.184;5.944;2023-07-20T02:53:23;0.03;;;0.03;;
14663;SDS011;7419;52.184;5.944;2023-07-20T02:54:22;0.08;;;0.08;;
14663;SDS011;7419;52.184;5.944;2023-07-20T02:55:22;0.04;;;0.04;;
14663;SDS011;7419;52.184;5.944;2023-07-20T02:56:23;0.05;;;0.02;;
14663;SDS011;7419;52.184;5.944;2023-07-20T02:57:22;0.01;;;0.01;;
14663;SDS011;7419;52.184;5.944;2023-07-20T02:58:23;0.03;;;0.03;;
14663;SDS011;7419;52.184;5.944;2023-07-20T02:59:24;0.07;;;-0.00;;
14663;SDS011;7419;52.184;5.944;2023-07-20T03:00:23;0.08;;;0.05;;
14663;SDS011;7419;52.184;5.944;2023-07-20T03:01:23;0.15;;;0.03;;
14663;SDS011;7419;52.184;5.944;2023-07-20T03:02:23;0.10;;;0.10;;
14663;SDS011;7419;52.184;5.944;2023-07-20T03:03:23;0.48;;;0.03;;
14663;SDS011;7419;52.184;5.944;2023-07-20T03:04:23;1.66;;;0.19;;
14663;SDS011;7419;52.184;5.944;2023-07-20T03:05:23;0.26;;;0.10;;
14663;SDS011;7419;52.184;5.944;2023-07-20T03:06:23;0.07;;;0.07;;
14663;SDS011;7419;52.184;5.944;2023-07-20T03:07:23;0.10;;;0.10;;
14663;SDS011;7419;52.184;5.944;2023-07-20T03:08:23;0.37;;;0.09;;
14663;SDS011;7419;52.184;5.944;2023-07-20T03:09:23;0.33;;;0.14;;
14663;SDS011;7419;52.184;5.944;2023-07-20T03:10:23;0.68;;;0.10;;
14663;SDS011;7419;52.184;5.944;2023-07-20T03:11:23;0.17;;;0.06;;
14663;SDS011;7419;52.184;5.944;2023-07-20T03:12:23;0.27;;;0.27;;
14663;SDS011;7419;52.184;5.944;2023-07-20T03:13:23;0.09;;;0.09;;
14663;SDS011;7419;52.184;5.944;2023-07-20T03:14:23;0.08;;;0.08;;
14663;SDS011;7419;52.184;5.944;2023-07-20T03:15:23;0.10;;;0.10;;
14663;SDS011;7419;52.184;5.944;2023-07-20T03:16:24;0.06;;;0.06;;
14663;SDS011;7419;52.184;5.944;2023-07-20T03:17:24;0.16;;;0.16;;
14663;SDS011;7419;52.184;5.944;2023-07-20T03:18:24;0.09;;;0.09;;
14663;SDS011;7419;52.184;5.944;2023-07-20T03:19:24;0.40;;;0.13;;
14663;SDS011;7419;52.184;5.944;2023-07-20T03:20:24;0.04;;;0.04;;
14663;SDS011;7419;52.184;5.944;2023-07-20T03:21:24;0.08;;;0.08;;
14663;SDS011;7419;52.184;5.944;2023-07-20T03:22:24;-0.00;;;-0.00;;
14663;SDS011;7419;52.184;5.944;2023-07-20T03:23:24;0.10;;;0.10;;
14663;SDS011;7419;52.184;5.944;2023-07-20T03:24:24;0.33;;;0.15;;
14663;SDS011;7419;52.184;5.944;2023-07-20T03:25:24;0.18;;;0.18;;
14663;SDS011;7419;52.184;5.944;2023-07-20T03:26:24;0.18;;;0.18;;
14663;SDS011;7419;52.184;5.944;2023-07-20T03:27:24;0.14;;;0.10;;
14663;SDS011;7419;52.184;5.944;2023-07-20T03:28:24;0.00;;;0.00;;
14663;SDS011;7419;52.184;5.944;2023-07-20T03:29:24;0.25;;;0.00;;
14663;SDS011;7419;52.184;5.944;2023-07-20T03:30:25;0.10;;;0.10;;
14663;SDS011;7419;52.184;5.944;2023-07-20T03:31:25;0.31;;;0.20;;
14663;SDS011;7419;52.184;5.944;2023-07-20T03:32:25;0.10;;;0.10;;
14663;SDS011;7419;52.184;5.944;2023-07-20T03:33:26;0.18;;;0.18;;
14663;SDS011;7419;52.184;5.944;2023-07-20T03:34:25;0.37;;;0.09;;
14663;SDS011;7419;52.184;5.944;2023-07-20T03:35:25;0.29;;;0.19;;
14663;SDS011;7419;52.184;5.944;2023-07-20T03:36:25;1.25;;;0.19;;
14663;SDS011;7419;52.184;5.944;2023-07-20T03:37:25;0.25;;;0.01;;
14663;SDS011;7419;52.184;5.944;2023-07-20T03:38:25;0.05;;;0.05;;
14663;SDS011;7419;52.184;5.944;2023-07-20T03:39:25;0.26;;;0.20;;
14663;SDS011;7419;52.184;5.944;2023-07-20T03:40:26;0.19;;;0.19;;
14663;SDS011;7419;52.184;5.944;2023-07-20T03:41:25;2.31;;;0.16;;
14663;SDS011;7419;52.184;5.944;2023-07-20T03:42:31;0.10;;;0.10;;
14663;SDS011;7419;52.184;5.944;2023-07-20T03:43:26;0.06;;;0.06;;
14663;SDS011;7419;52.184;5.944;2023-07-20T03:44:25;0.10;;;0.09;;
14663;SDS011;7419;52.184;5.944;2023-07-20T03:45:25;0.54;;;0.36;;
14663;SDS011;7419;52.184;5.944;2023-07-20T03:46:26;0.11;;;0.11;;
14663;SDS011;7419;52.184;5.944;2023-07-20T03:47:26;5.18;;;0.30;;
14663;SDS011;7419;52.184;5.944;2023-07-20T03:48:26;0.09;;;0.09;;
14663;SDS011;7419;52.184;5.944;2023-07-20T03:49:26;0.10;;;0.10;;
14663;SDS011;7419;52.184;5.944;2023-07-20T03:50:26;0.12;;;0.09;;
14663;SDS011;7419;52.184;5.944;2023-07-20T03:51:26;0.08;;;0.08;;
14663;SDS011;7419;52.184;5.944;2023-07-20T03:52:26;0.20;;;0.20;;
14663;SDS011;7419;52.184;5.944;2023-07-20T03:53:26;0.10;;;0.10;;
14663;SDS011;7419;52.184;5.944;2023-07-20T03:54:26;0.04;;;0.04;;
14663;SDS011;7419;52.184;5.944;2023-07-20T03:55:26;0.25;;;0.10;;
14663;SDS011;7419;52.184;5.944;2023-07-20T03:56:26;0.10;;;0.10;;
14663;SDS011;7419;52.184;5.944;2023-07-20T03:57:26;0.16;;;0.16;;
14663;SDS011;7419;52.184;5.944;2023-07-20T03:58:26;0.16;;;0.16;;
14663;SDS011;7419;52.184;5.944;2023-07-20T03:59:26;0.23;;;0.13;;
14663;SDS011;7419;52.184;5.944;2023-07-20T04:00:26;0.21;;;0.10;;
14663;SDS011;7419;52.184;5.944;2023-07-20T04:01:27;0.14;;;0.14;;
14663;SDS011;7419;52.184;5.944;2023-07-20T04:02:27;0.20;;;0.20;;
14663;SDS011;7419;52.184;5.944;2023-07-20T04:03:27;0.10;;;0.10;;
14663;SDS011;7419;52.184;5.944;2023-07-20T04:04:27;0.10;;;0.10;;
14663;SDS011;7419;52.184;5.944;2023-07-20T04:05:27;0.10;;;0.10;;
14663;SDS011;7419;52.184;5.944;2023-07-20T04:06:27;0.11;;;0.11;;
14663;SDS011;7419;52.184;5.944;2023-07-20T04:07:27;0.47;;;0.18;;
14663;SDS011;7419;52.184;5.944;2023-07-20T04:08:27;0.21;;;0.08;;
14663;SDS011;7419;52.184;5.944;2023-07-20T04:09:27;0.01;;;0.01;;
14663;SDS011;7419;52.184;5.944;2023-07-20T04:10:28;0.10;;;0.10;;
14663;SDS011;7419;52.184;5.944;2023-07-20T04:11:29;0.10;;;0.10;;
14663;SDS011;7419;52.184;5.944;2023-07-20T04:12:28;0.11;;;0.11;;
14663;SDS011;7419;52.184;5.944;2023-07-20T04:13:29;0.20;;;0.16;;
14663;SDS011;7419;52.184;5.944;2023-07-20T04:14:27;0.18;;;0.17;;
14663;SDS011;7419;52.184;5.944;2023-07-20T04:15:28;0.42;;;0.42;;
14663;SDS011;7419;52.184;5.944;2023-07-20T04:16:28;0.56;;;0.45;;
14663;SDS011;7419;52.184;5.944;2023-07-20T04:17:28;0.85;;;0.38;;
14663;SDS011;7419;52.184;5.944;2023-07-20T04:18:28;0.28;;;0.09;;
14663;SDS011;7419;52.184;5.944;2023-07-20T04:19:28;0.26;;;0.08;;
14663;SDS011;7419;52.184;5.944;2023-07-20T04:20:28;0.14;;;0.11;;
14663;SDS011;7419;52.184;5.944;2023-07-20T04:21:28;0.73;;;0.10;;
14663;SDS011;7419;52.184;5.944;2023-07-20T04:22:28;0.74;;;0.38;;
14663;SDS011;7419;52.184;5.944;2023-07-20T04:23:28;0.10;;;0.09;;
14663;SDS011;7419;52.184;5.944;2023-07-20T04:24:31;0.26;;;0.10;;
14663;SDS011;7419;52.184;5.944;2023-07-20T04:25:28;0.10;;;0.10;;
14663;SDS011;7419;52.184;5.944;2023-07-20T04:26:28;0.33;;;0.16;;
14663;SDS011;7419;52.184;5.944;2023-07-20T04:27:28;0.15;;;0.15;;
14663;SDS011;7419;52.184;5.944;2023-07-20T04:28:28;0.22;;;0.22;;
14663;SDS011;7419;52.184;5.944;2023-07-20T04:29:28;0.10;;;0.10;;
14663;SDS011;7419;52.184;5.944;2023-07-20T04:30:28;0.50;;;0.17;;
14663;SDS011;7419;52.184;5.944;2023-07-20T04:31:30;0.18;;;0.12;;
14663;SDS011;7419;52.184;5.944;2023-07-20T04:32:29;0.14;;;0.14;;
14663;SDS011;7419;52.184;5.944;2023-07-20T04:33:29;0.10;;;0.10;;
14663;SDS011;7419;52.184;5.944;2023-07-20T04:34:29;0.17;;;0.10;;
14663;SDS011;7419;52.184;5.944;2023-07-20T04:35:45;1.24;;;0.30;;
14663;SDS011;7419;52.184;5.944;2023-07-20T04:36:29;0.28;;;0.23;;
14663;SDS011;7419;52.184;5.944;2023-07-20T04:37:29;1.22;;;0.45;;
14663;SDS011;7419;52.184;5.944;2023-07-20T04:38:29;1.99;;;0.20;;
14663;SDS011;7419;52.184;5.944;2023-07-20T04:39:29;0.15;;;0.13;;
14663;SDS011;7419;52.184;5.944;2023-07-20T04:40:29;0.22;;;0.14;;
14663;SDS011;7419;52.184;5.944;2023-07-20T04:41:29;0.14;;;0.14;;
14663;SDS011;7419;52.184;5.944;2023-07-20T04:42:29;0.10;;;0.10;;
14663;SDS011;7419;52.184;5.944;2023-07-20T04:43:29;0.24;;;0.20;;
14663;SDS011;7419;52.184;5.944;2023-07-20T04:44:29;0.13;;;0.11;;
14663;SDS011;7419;52.184;5.944;2023-07-20T04:45:29;0.13;;;0.11;;
14663;SDS011;7419;52.184;5.944;2023-07-20T04:46:30;0.14;;;0.13;;
14663;SDS011;7419;52.184;5.944;2023-07-20T04:47:30;0.68;;;0.14;;
14663;SDS011;7419;52.184;5.944;2023-07-20T04:48:30;0.17;;;0.17;;
14663;SDS011;7419;52.184;5.944;2023-07-20T04:49:30;1.65;;;0.16;;
14663;SDS011;7419;52.184;5.944;2023-07-20T04:50:30;0.56;;;0.16;;
14663;SDS011;7419;52.184;5.944;2023-07-20T04:51:30;0.15;;;0.15;;
14663;SDS011;7419;52.184;5.944;2023-07-20T04:52:30;0.49;;;0.20;;
14663;SDS011;7419;52.184;5.944;2023-07-20T04:53:30;0.14;;;0.10;;
14663;SDS011;7419;52.184;5.944;2023-07-20T04:54:30;0.11;;;0.11;;
14663;SDS011;7419;52.184;5.944;2023-07-20T04:55:30;0.18;;;0.18;;
14663;SDS011;7419;52.184;5.944;2023-07-20T04:56:30;0.10;;;0.10;;
14663;SDS011;7419;52.184;5.944;2023-07-20T04:57:30;0.36;;;0.26;;
14663;SDS011;7419;52.184;5.944;2023-07-20T04:58:30;0.77;;;0.30;;
14663;SDS011;7419;52.184;5.944;2023-07-20T04:59:30;1.50;;;0.14;;
14663;SDS011;7419;52.184;5.944;2023-07-20T05:00:31;0.18;;;0.18;;
14663;SDS011;7419;52.184;5.944;2023-07-20T05:01:30;0.12;;;0.10;;
14663;SDS011;7419;52.184;5.944;2023-07-20T05:02:31;0.54;;;0.15;;
14663;SDS011;7419;52.184;5.944;2023-07-20T05:03:31;1.72;;;0.45;;
14663;SDS011;7419;52.184;5.944;2023-07-20T05:04:31;0.32;;;0.32;;
14663;SDS011;7419;52.184;5.944;2023-07-20T05:05:31;0.10;;;0.10;;
14663;SDS011;7419;52.184;5.944;2023-07-20T05:06:31;0.11;;;0.11;;
14663;SDS011;7419;52.184;5.944;2023-07-20T05:07:31;0.22;;;0.18;;
14663;SDS011;7419;52.184;5.944;2023-07-20T05:08:31;0.93;;;0.18;;
14663;SDS011;7419;52.184;5.944;2023-07-20T05:09:31;0.18;;;0.18;;
14663;SDS011;7419;52.184;5.944;2023-07-20T05:10:33;0.11;;;0.10;;
14663;SDS011;7419;52.184;5.944;2023-07-20T05:11:33;0.10;;;0.10;;
14663;SDS011;7419;52.184;5.944;2023-07-20T05:12:31;0.24;;;0.24;;
14663;SDS011;7419;52.184;5.944;2023-07-20T05:13:31;0.59;;;0.15;;
14663;SDS011;7419;52.184;5.944;2023-07-20T05:14:31;0.17;;;0.17;;
14663;SDS011;7419;52.184;5.944;2023-07-20T05:15:32;0.14;;;0.11;;
14663;SDS011;7419;52.184;5.944;2023-07-20T05:16:31;1.24;;;0.20;;
14663;SDS011;7419;52.184;5.944;2023-07-20T05:17:32;0.27;;;0.26;;
14663;SDS011;7419;52.184;5.944;2023-07-20T05:18:32;0.17;;;0.16;;
14663;SDS011;7419;52.184;5.944;2023-07-20T05:19:32;0.28;;;0.28;;
14663;SDS011;7419;52.184;5.944;2023-07-20T05:20:32;0.39;;;0.14;;
14663;SDS011;7419;52.184;5.944;2023-07-20T05:21:32;0.21;;;0.15;;
14663;SDS011;7419;52.184;5.944;2023-07-20T05:22:32;0.33;;;0.23;;
14663;SDS011;7419;52.184;5.944;2023-07-20T05:23:32;0.71;;;0.18;;
14663;SDS011;7419;52.184;5.944;2023-07-20T05:24:32;1.60;;;0.20;;
14663;SDS011;7419;52.184;5.944;2023-07-20T05:25:32;0.18;;;0.17;;
14663;SDS011;7419;52.184;5.944;2023-07-20T05:26:32;0.41;;;0.29;;
14663;SDS011;7419;52.184;5.944;2023-07-20T05:27:33;0.16;;;0.16;;
14663;SDS011;7419;52.184;5.944;2023-07-20T05:28:32;0.40;;;0.16;;
14663;SDS011;7419;52.184;5.944;2023-07-20T05:29:32;0.17;;;0.17;;
14663;SDS011;7419;52.184;5.944;2023-07-20T05:30:33;0.26;;;0.10;;
14663;SDS011;7419;52.184;5.944;2023-07-20T05:31:32;0.10;;;0.10;;
14663;SDS011;7419;52.184;5.944;2023-07-20T05:32:33;0.12;;;0.12;;
14663;SDS011;7419;52.184;5.944;2023-07-20T05:33:33;0.28;;;0.17;;
14663;SDS011;7419;52.184;5.944;2023-07-20T05:34:33;0.06;;;0.06;;
14663;SDS011;7419;52.184;5.944;2023-07-20T05:35:33;0.13;;;0.13;;
14663;SDS011;7419;52.184;5.944;2023-07-20T05:36:33;0.23;;;0.09;;
14663;SDS011;7419;52.184;5.944;2023-07-20T05:37:33;0.93;;;0.60;;
14663;SDS011;7419;52.184;5.944;2023-07-20T05:38:33;0.79;;;0.18;;
14663;SDS011;7419;52.184;5.944;2023-07-20T05:39:33;0.60;;;0.10;;
14663;SDS011;7419;52.184;5.944;2023-07-20T05:40:35;0.50;;;0.19;;
14663;SDS011;7419;52.184;5.944;2023-07-20T05:41:34;1.46;;;0.10;;
14663;SDS011;7419;52.184;5.944;2023-07-20T05:42:33;0.19;;;0.10;;
14663;SDS011;7419;52.184;5.944;2023-07-20T05:43:33;0.10;;;0.10;;
14663;SDS011;7419;52.184;5.944;2023-07-20T05:44:33;0.99;;;0.15;;
14663;SDS011;7419;52.184;5.944;2023-07-20T05:45:33;0.56;;;0.19;;
14663;SDS011;7419;52.184;5.944;2023-07-20T05:46:33;0.06;;;0.06;;
14663;SDS011;7419;52.184;5.944;2023-07-20T05:47:33;0.48;;;0.26;;
14663;SDS011;7419;52.184;5.944;2023-07-20T05:48:33;0.13;;;0.13;;
14663;SDS011;7419;52.184;5.944;2023-07-20T05:49:33;0.76;;;0.40;;
14663;SDS011;7419;52.184;5.944;2023-07-20T05:50:34;0.43;;;0.16;;
14663;SDS011;7419;52.184;5.944;2023-07-20T05:51:35;0.10;;;0.10;;
14663;SDS011;7419;52.184;5.944;2023-07-20T05:52:34;0.10;;;0.10;;
14663;SDS011;7419;52.184;5.944;2023-07-20T05:53:34;2.13;;;0.10;;
14663;SDS011;7419;52.184;5.944;2023-07-20T05:54:34;0.14;;;0.10;;
14663;SDS011;7419;52.184;5.944;2023-07-20T05:55:34;0.02;;;0.02;;
14663;SDS011;7419;52.184;5.944;2023-07-20T05:56:34;0.15;;;0.15;;
14663;SDS011;7419;52.184;5.944;2023-07-20T05:57:34;0.08;;;0.08;;
14663;SDS011;7419;52.184;5.944;2023-07-20T05:58:34;0.06;;;0.06;;
14663;SDS011;7419;52.184;5.944;2023-07-20T05:59:34;1.04;;;0.10;;
14663;SDS011;7419;52.184;5.944;2023-07-20T06:00:34;0.14;;;0.10;;
14663;SDS011;7419;52.184;5.944;2023-07-20T06:01:38;0.03;;;0.03;;
14663;SDS011;7419;52.184;5.944;2023-07-20T06:02:34;0.32;;;0.10;;
14663;SDS011;7419;52.184;5.944;2023-07-20T06:03:34;0.10;;;0.10;;
14663;SDS011;7419;52.184;5.944;2023-07-20T06:04:34;0.09;;;0.01;;
14663;SDS011;7419;52.184;5.944;2023-07-20T06:05:34;0.07;;;0.07;;
14663;SDS011;7419;52.184;5.944;2023-07-20T06:06:34;0.02;;;0.02;;